createdAt,value
2017-10-09T00:00:17.794Z,0.00
2017-10-09T00:01:17.808Z,0.00
2017-10-09T00:02:17.826Z,0.00
2017-10-09T00:03:17.844Z,0.00
2017-10-09T00:04:17.859Z,0.00
2017-10-09T00:05:17.877Z,0.00
2017-10-09T00:06:17.894Z,0.00
2017-10-09T00:07:17.910Z,0.00
2017-10-09T00:08:17.927Z,0.00
2017-10-09T00:09:17.947Z,0.00
2017-10-09T00:10:17.965Z,0.00
2017-10-09T00:11:17.980Z,0.00
2017-10-09T00:12:17.995Z,0.00
2017-10-09T00:13:18.014Z,0.00
2017-10-09T00:14:18.029Z,0.00
2017-10-09T00:15:18.048Z,0.00
2017-10-09T00:16:18.063Z,0.00
2017-10-09T00:17:18.078Z,0.00
2017-10-09T00:18:18.095Z,0.00
2017-10-09T00:19:18.113Z,0.00
2017-10-09T00:20:18.133Z,0.00
2017-10-09T00:21:18.145Z,0.00
2017-10-09T00:22:18.182Z,0.00
2017-10-09T00:23:18.182Z,0.00
2017-10-09T00:24:18.198Z,0.00
2017-10-09T00:25:18.214Z,0.00
2017-10-09T00:26:18.419Z,0.00
2017-10-09T00:27:18.385Z,0.00
2017-10-09T00:28:18.268Z,0.00
2017-10-09T00:29:18.281Z,0.00
2017-10-09T00:30:18.298Z,0.00
2017-10-09T00:31:18.316Z,0.00
2017-10-09T00:32:18.330Z,0.00
2017-10-09T00:33:18.347Z,0.00
2017-10-09T00:34:18.367Z,0.00
2017-10-09T00:35:18.387Z,0.00
2017-10-09T00:36:18.399Z,0.00
2017-10-09T00:37:18.419Z,0.00
2017-10-09T00:38:18.432Z,0.00
2017-10-09T00:39:18.451Z,0.00
2017-10-09T00:40:18.468Z,0.00
2017-10-09T00:41:18.482Z,0.00
2017-10-09T00:42:18.502Z,0.00
2017-10-09T00:43:18.517Z,0.00
2017-10-09T00:44:18.538Z,0.00
2017-10-09T00:45:18.548Z,0.00
2017-10-09T00:46:18.568Z,0.00
2017-10-09T00:47:18.585Z,0.00
2017-10-09T00:48:18.621Z,0.00
2017-10-09T00:49:18.616Z,0.00
2017-10-09T00:50:18.633Z,0.00
2017-10-09T00:51:18.650Z,0.00
2017-10-09T00:52:18.667Z,0.00
2017-10-09T00:53:18.685Z,0.00
2017-10-09T00:54:18.702Z,0.00
2017-10-09T00:55:18.718Z,0.00
2017-10-09T00:56:18.736Z,0.00
2017-10-09T00:57:18.752Z,0.00
2017-10-09T00:58:18.767Z,0.00
2017-10-09T00:59:18.784Z,0.00
2017-10-09T01:00:18.806Z,0.00
2017-10-09T01:01:18.818Z,0.00
2017-10-09T01:02:18.834Z,0.00
2017-10-09T01:03:18.851Z,0.00
2017-10-09T01:04:18.872Z,0.00
2017-10-09T01:05:18.885Z,0.00
2017-10-09T01:06:18.903Z,0.00
2017-10-09T01:07:18.917Z,0.00
2017-10-09T01:08:18.934Z,0.00
2017-10-09T01:09:18.951Z,0.00
2017-10-09T01:10:18.970Z,0.00
2017-10-09T01:11:18.987Z,0.00
2017-10-09T01:12:19.004Z,0.00
2017-10-09T01:13:19.019Z,0.00
2017-10-09T01:14:19.035Z,0.00
2017-10-09T01:15:19.056Z,0.00
2017-10-09T01:16:19.071Z,0.00
2017-10-09T01:17:19.084Z,0.00
2017-10-09T01:18:19.101Z,0.00
2017-10-09T01:19:19.119Z,0.00
2017-10-09T01:20:19.139Z,0.00
2017-10-09T01:21:19.154Z,0.00
2017-10-09T01:22:19.176Z,0.00
2017-10-09T01:23:19.185Z,0.00
2017-10-09T01:24:19.228Z,0.00
2017-10-09T01:25:19.220Z,0.00
2017-10-09T01:26:19.236Z,0.00
2017-10-09T01:27:19.256Z,0.00
2017-10-09T01:28:19.270Z,0.00
2017-10-09T01:29:19.286Z,0.00
2017-10-09T01:30:19.308Z,0.00
2017-10-09T01:31:19.321Z,0.00
2017-10-09T01:32:19.340Z,0.00
2017-10-09T01:33:19.353Z,0.00
2017-10-09T01:34:19.371Z,0.00
2017-10-09T01:35:19.391Z,0.00
2017-10-09T01:36:19.406Z,0.00
2017-10-09T01:37:19.422Z,0.00
2017-10-09T01:38:19.438Z,0.00
2017-10-09T01:39:19.460Z,0.00
2017-10-09T01:40:19.479Z,0.00
2017-10-09T01:41:19.491Z,0.00
2017-10-09T01:42:19.506Z,0.00
2017-10-09T01:43:19.527Z,0.00
2017-10-09T01:44:19.543Z,0.00
2017-10-09T01:45:19.559Z,0.00
2017-10-09T01:46:19.575Z,0.00
2017-10-09T01:47:19.593Z,0.00
2017-10-09T01:48:19.613Z,0.00
2017-10-09T01:49:19.628Z,0.00
2017-10-09T01:50:19.648Z,0.00
2017-10-09T01:51:19.664Z,0.00
2017-10-09T01:52:19.680Z,0.00
2017-10-09T01:53:19.696Z,0.00
2017-10-09T01:54:19.712Z,0.00
2017-10-09T01:55:19.730Z,0.00
2017-10-09T01:56:19.747Z,0.00
2017-10-09T01:57:19.764Z,0.00
2017-10-09T01:58:19.782Z,0.00
2017-10-09T01:59:19.798Z,0.00
2017-10-09T02:00:19.816Z,0.00
2017-10-09T02:01:19.835Z,0.00
2017-10-09T02:02:19.852Z,0.00
2017-10-09T02:03:19.871Z,0.00
2017-10-09T02:04:19.885Z,0.00
2017-10-09T02:05:19.906Z,0.00
2017-10-09T02:06:19.919Z,0.00
2017-10-09T02:07:19.939Z,0.00
2017-10-09T02:08:19.954Z,0.00
2017-10-09T02:09:19.973Z,0.00
2017-10-09T02:10:19.993Z,0.00
2017-10-09T02:11:20.009Z,0.00
2017-10-09T02:12:20.030Z,0.00
2017-10-09T02:13:20.040Z,0.00
2017-10-09T02:14:20.058Z,0.00
2017-10-09T02:15:20.076Z,0.00
2017-10-09T02:16:20.094Z,0.00
2017-10-09T02:17:20.111Z,0.00
2017-10-09T02:18:20.125Z,0.00
2017-10-09T02:19:20.144Z,0.00
2017-10-09T02:20:20.163Z,0.00
2017-10-09T02:21:20.179Z,0.00
2017-10-09T02:22:20.198Z,0.00
2017-10-09T02:23:20.212Z,0.00
2017-10-09T02:24:20.231Z,0.00
2017-10-09T02:25:20.246Z,0.00
2017-10-09T02:26:20.263Z,0.00
2017-10-09T02:27:20.282Z,0.00
2017-10-09T02:28:20.298Z,0.00
2017-10-09T02:29:20.321Z,0.00
2017-10-09T02:30:20.335Z,0.00
2017-10-09T02:31:20.353Z,0.00
2017-10-09T02:32:20.368Z,0.00
2017-10-09T02:33:20.383Z,0.00
2017-10-09T02:34:20.403Z,0.00
2017-10-09T02:35:20.419Z,0.00
2017-10-09T02:36:20.438Z,0.00
2017-10-09T02:37:20.456Z,0.00
2017-10-09T02:38:20.472Z,0.00
2017-10-09T02:39:20.488Z,0.00
2017-10-09T02:40:20.509Z,0.00
2017-10-09T02:41:20.523Z,0.00
2017-10-09T02:42:20.545Z,0.00
2017-10-09T02:43:20.562Z,0.00
2017-10-09T02:44:20.582Z,0.00
2017-10-09T02:45:20.594Z,0.00
2017-10-09T02:46:20.608Z,0.00
2017-10-09T02:47:20.627Z,0.00
2017-10-09T02:48:20.647Z,0.00
2017-10-09T02:49:20.663Z,0.00
2017-10-09T02:50:20.680Z,0.00
2017-10-09T02:51:20.710Z,0.00
2017-10-09T02:52:20.715Z,0.00
2017-10-09T02:53:20.732Z,0.00
2017-10-09T02:54:20.751Z,0.00
2017-10-09T02:55:20.768Z,0.00
2017-10-09T02:56:20.785Z,0.00
2017-10-09T02:57:20.804Z,0.00
2017-10-09T02:58:20.822Z,0.00
2017-10-09T02:59:20.837Z,0.00
2017-10-09T03:00:20.855Z,0.00
2017-10-09T03:01:20.872Z,0.00
2017-10-09T03:02:20.889Z,0.00
2017-10-09T03:03:20.907Z,0.00
2017-10-09T03:04:20.926Z,0.00
2017-10-09T03:05:20.942Z,0.00
2017-10-09T03:06:20.960Z,0.00
2017-10-09T03:07:20.978Z,0.00
2017-10-09T03:08:20.996Z,0.00
2017-10-09T03:09:21.012Z,0.00
2017-10-09T03:10:21.031Z,0.00
2017-10-09T03:11:21.048Z,0.00
2017-10-09T03:12:21.065Z,0.00
2017-10-09T03:13:21.082Z,0.00
2017-10-09T03:14:21.101Z,0.00
2017-10-09T03:15:21.121Z,0.00
2017-10-09T03:16:21.134Z,0.00
2017-10-09T03:17:21.154Z,0.00
2017-10-09T03:18:21.172Z,0.00
2017-10-09T03:19:21.187Z,0.00
2017-10-09T03:20:21.205Z,0.00
2017-10-09T03:21:21.226Z,0.00
2017-10-09T03:22:21.242Z,0.00
2017-10-09T03:23:21.261Z,0.00
2017-10-09T03:24:21.277Z,0.00
2017-10-09T03:25:21.293Z,0.00
2017-10-09T03:26:21.313Z,0.00
2017-10-09T03:27:21.330Z,0.00
2017-10-09T03:28:21.348Z,0.00
2017-10-09T03:29:21.365Z,0.00
2017-10-09T03:30:21.384Z,0.00
2017-10-09T03:31:21.400Z,0.00
2017-10-09T03:32:21.418Z,0.00
2017-10-09T03:33:21.434Z,0.00
2017-10-09T03:34:21.452Z,0.00
2017-10-09T03:35:21.470Z,0.00
2017-10-09T03:36:21.488Z,0.00
2017-10-09T03:37:21.508Z,0.00
2017-10-09T03:38:21.527Z,0.00
2017-10-09T03:39:21.542Z,0.00
2017-10-09T03:40:21.559Z,0.00
2017-10-09T03:41:21.577Z,0.00
2017-10-09T03:42:21.596Z,0.00
2017-10-09T03:43:21.611Z,0.00
2017-10-09T03:44:21.642Z,0.00
2017-10-09T03:45:21.649Z,0.00
2017-10-09T03:46:21.681Z,0.00
2017-10-09T03:47:21.683Z,0.00
2017-10-09T03:48:21.700Z,0.00
2017-10-09T03:49:21.718Z,0.00
2017-10-09T03:50:21.739Z,0.00
2017-10-09T03:51:21.756Z,0.00
2017-10-09T03:52:21.772Z,0.00
2017-10-09T03:53:21.788Z,0.00
2017-10-09T03:54:21.807Z,0.00
2017-10-09T03:55:21.828Z,0.00
2017-10-09T03:56:21.844Z,0.00
2017-10-09T03:57:21.858Z,0.00
2017-10-09T03:58:21.877Z,0.00
2017-10-09T03:59:21.895Z,0.00
2017-10-09T04:00:21.914Z,0.00
2017-10-09T04:01:21.934Z,0.00
2017-10-09T04:02:21.952Z,0.00
2017-10-09T04:03:21.969Z,0.00
2017-10-09T04:04:21.985Z,0.00
2017-10-09T04:05:22.006Z,0.00
2017-10-09T04:06:22.022Z,0.00
2017-10-09T04:07:22.043Z,0.00
2017-10-09T04:08:22.056Z,0.00
2017-10-09T04:09:22.073Z,0.00
2017-10-09T04:10:22.093Z,0.00
2017-10-09T04:11:22.109Z,0.00
2017-10-09T04:12:22.133Z,0.00
2017-10-09T04:13:22.143Z,0.00
2017-10-09T04:14:22.164Z,0.00
2017-10-09T04:15:22.179Z,0.00
2017-10-09T04:16:22.197Z,0.00
2017-10-09T04:17:22.219Z,0.00
2017-10-09T04:18:22.233Z,0.00
2017-10-09T04:19:22.253Z,0.00
2017-10-09T04:20:22.271Z,0.00
2017-10-09T04:21:22.285Z,0.00
2017-10-09T04:22:22.306Z,0.00
2017-10-09T04:23:22.325Z,0.00
2017-10-09T04:24:22.341Z,0.00
2017-10-09T04:25:22.358Z,0.00
2017-10-09T04:26:22.373Z,0.00
2017-10-09T04:27:22.398Z,0.00
2017-10-09T04:28:22.411Z,0.00
2017-10-09T04:29:22.429Z,0.00
2017-10-09T04:30:22.448Z,0.00
2017-10-09T04:31:22.467Z,0.00
2017-10-09T04:32:22.484Z,0.00
2017-10-09T04:33:22.502Z,0.00
2017-10-09T04:34:22.528Z,0.00
2017-10-09T04:35:22.536Z,0.00
2017-10-09T04:36:22.555Z,0.00
2017-10-09T04:37:22.574Z,0.00
2017-10-09T04:38:22.590Z,0.00
2017-10-09T04:39:22.615Z,0.00
2017-10-09T04:40:22.627Z,0.00
2017-10-09T04:41:22.644Z,0.00
2017-10-09T04:42:22.659Z,0.00
2017-10-09T04:43:22.678Z,0.00
2017-10-09T04:44:22.699Z,0.00
2017-10-09T04:45:22.714Z,0.00
2017-10-09T04:46:22.733Z,0.00
2017-10-09T04:47:22.752Z,0.00
2017-10-09T04:48:22.769Z,0.00
2017-10-09T04:49:22.785Z,0.00
2017-10-09T04:50:22.803Z,0.00
2017-10-09T04:51:22.821Z,0.00
2017-10-09T04:52:22.838Z,0.00
2017-10-09T04:53:22.860Z,0.00
2017-10-09T04:54:22.875Z,0.00
2017-10-09T04:55:22.895Z,0.00
2017-10-09T04:56:22.911Z,0.00
2017-10-09T04:57:22.929Z,0.00
2017-10-09T04:58:22.949Z,0.00
2017-10-09T04:59:22.974Z,0.00
2017-10-09T05:00:22.983Z,0.00
2017-10-09T05:01:23.005Z,0.00
2017-10-09T05:02:23.020Z,0.00
2017-10-09T05:03:23.039Z,0.00
2017-10-09T05:04:23.055Z,0.00
2017-10-09T05:05:23.073Z,0.00
2017-10-09T05:06:23.088Z,0.00
2017-10-09T05:07:23.108Z,0.00
2017-10-09T05:08:23.128Z,0.00
2017-10-09T05:09:23.141Z,0.00
2017-10-09T05:10:23.168Z,0.00
2017-10-09T05:11:23.180Z,0.00
2017-10-09T05:12:23.202Z,0.00
2017-10-09T05:13:23.217Z,0.00
2017-10-09T05:14:23.235Z,0.00
2017-10-09T05:15:23.252Z,0.00
2017-10-09T05:16:23.272Z,0.00
2017-10-09T05:17:23.290Z,0.00
2017-10-09T05:18:23.308Z,0.00
2017-10-09T05:19:23.323Z,0.00
2017-10-09T05:20:23.343Z,0.00
2017-10-09T05:21:23.360Z,0.00
2017-10-09T05:22:23.376Z,0.00
2017-10-09T05:23:23.411Z,0.00
2017-10-09T05:24:23.413Z,0.00
2017-10-09T05:25:23.431Z,0.00
2017-10-09T05:26:23.447Z,0.00
2017-10-09T05:27:23.467Z,0.00
2017-10-09T05:28:23.484Z,0.00
2017-10-09T05:29:23.503Z,0.00
2017-10-09T05:30:23.522Z,0.00
2017-10-09T05:31:23.542Z,0.00
2017-10-09T05:32:23.557Z,5.63
2017-10-09T05:33:23.576Z,5.63
2017-10-09T05:34:23.592Z,5.63
2017-10-09T05:35:23.614Z,5.63
2017-10-09T05:36:23.629Z,5.63
2017-10-09T05:37:23.645Z,5.63
2017-10-09T05:38:23.665Z,5.63
2017-10-09T05:39:23.683Z,11.25
2017-10-09T05:40:23.701Z,11.25
2017-10-09T05:41:23.718Z,11.25
2017-10-09T05:42:23.738Z,16.88
2017-10-09T05:43:23.755Z,16.88
2017-10-09T05:44:23.772Z,16.88
2017-10-09T05:45:23.790Z,22.50
2017-10-09T05:46:23.813Z,22.50
2017-10-09T05:47:23.829Z,22.50
2017-10-09T05:48:23.847Z,22.50
2017-10-09T05:49:23.862Z,22.50
2017-10-09T05:50:23.886Z,22.50
2017-10-09T05:51:23.901Z,22.50
2017-10-09T05:52:23.918Z,22.50
2017-10-09T05:53:23.940Z,22.50
2017-10-09T05:54:23.952Z,22.50
2017-10-09T05:55:23.973Z,22.50
2017-10-09T05:56:23.992Z,22.50
2017-10-09T05:57:24.008Z,28.13
2017-10-09T05:58:24.030Z,28.13
2017-10-09T05:59:24.046Z,28.13
2017-10-09T06:00:24.066Z,28.13
2017-10-09T06:01:24.081Z,28.13
2017-10-09T06:02:24.101Z,33.75
2017-10-09T06:03:24.121Z,39.38
2017-10-09T06:04:24.136Z,39.38
2017-10-09T06:05:24.154Z,45.00
2017-10-09T06:06:24.173Z,50.63
2017-10-09T06:07:24.272Z,50.63
2017-10-09T06:08:24.209Z,56.25
2017-10-09T06:09:24.228Z,61.88
2017-10-09T06:10:24.243Z,61.88
2017-10-09T06:11:24.266Z,61.88
2017-10-09T06:12:24.282Z,61.88
2017-10-09T06:13:24.308Z,61.88
2017-10-09T06:14:24.318Z,61.88
2017-10-09T06:15:24.335Z,56.25
2017-10-09T06:16:24.357Z,61.88
2017-10-09T06:17:24.373Z,67.50
2017-10-09T06:18:24.391Z,73.13
2017-10-09T06:19:24.410Z,73.13
2017-10-09T06:20:24.429Z,73.13
2017-10-09T06:21:24.462Z,73.13
2017-10-09T06:22:24.465Z,73.13
2017-10-09T06:23:24.482Z,73.13
2017-10-09T06:24:24.503Z,73.13
2017-10-09T06:25:24.518Z,67.50
2017-10-09T06:26:24.544Z,67.50
2017-10-09T06:27:24.558Z,61.88
2017-10-09T06:28:24.576Z,61.88
2017-10-09T06:29:24.594Z,61.88
2017-10-09T06:30:24.614Z,61.88
2017-10-09T06:31:24.630Z,61.88
2017-10-09T06:32:24.652Z,61.88
2017-10-09T06:33:24.678Z,67.50
2017-10-09T06:34:24.688Z,67.50
2017-10-09T06:35:24.711Z,67.50
2017-10-09T06:36:24.723Z,73.13
2017-10-09T06:37:24.740Z,78.75
2017-10-09T06:38:24.761Z,84.38
2017-10-09T06:39:24.785Z,84.38
2017-10-09T06:40:24.796Z,84.38
2017-10-09T06:41:24.816Z,90.00
2017-10-09T06:42:24.834Z,90.00
2017-10-09T06:43:24.853Z,90.00
2017-10-09T06:44:24.871Z,84.38
2017-10-09T06:45:24.888Z,90.00
2017-10-09T06:46:24.908Z,90.00
2017-10-09T06:47:24.929Z,90.00
2017-10-09T06:48:24.946Z,90.00
2017-10-09T06:49:24.964Z,90.00
2017-10-09T06:50:24.982Z,90.00
2017-10-09T06:51:24.999Z,84.38
2017-10-09T06:52:25.019Z,84.38
2017-10-09T06:53:25.038Z,84.38
2017-10-09T06:54:25.056Z,84.38
2017-10-09T06:55:25.077Z,101.25
2017-10-09T06:56:25.095Z,106.88
2017-10-09T06:57:25.114Z,106.88
2017-10-09T06:58:25.135Z,112.50
2017-10-09T06:59:25.150Z,129.38
2017-10-09T07:00:25.168Z,151.88
2017-10-09T07:01:25.191Z,163.13
2017-10-09T07:02:25.207Z,157.50
2017-10-09T07:03:25.223Z,168.75
2017-10-09T07:04:25.245Z,174.38
2017-10-09T07:05:25.260Z,180.00
2017-10-09T07:06:25.282Z,174.38
2017-10-09T07:07:25.302Z,157.50
2017-10-09T07:08:25.317Z,129.38
2017-10-09T07:09:25.336Z,129.38
2017-10-09T07:10:25.355Z,146.25
2017-10-09T07:11:25.372Z,163.13
2017-10-09T07:12:25.394Z,168.75
2017-10-09T07:13:25.409Z,180.00
2017-10-09T07:14:25.430Z,185.63
2017-10-09T07:15:25.447Z,196.88
2017-10-09T07:16:25.468Z,191.25
2017-10-09T07:17:25.489Z,196.88
2017-10-09T07:18:25.504Z,208.13
2017-10-09T07:19:25.523Z,219.38
2017-10-09T07:20:25.548Z,236.25
2017-10-09T07:21:25.562Z,258.75
2017-10-09T07:22:25.579Z,281.25
2017-10-09T07:23:25.598Z,292.50
2017-10-09T07:24:25.618Z,303.75
2017-10-09T07:25:25.635Z,309.38
2017-10-09T07:26:25.655Z,315.00
2017-10-09T07:27:25.677Z,337.50
2017-10-09T07:28:25.696Z,354.38
2017-10-09T07:29:25.716Z,365.63
2017-10-09T07:30:25.735Z,365.63
2017-10-09T07:31:25.753Z,354.38
2017-10-09T07:32:25.773Z,331.88
2017-10-09T07:33:25.795Z,315.00
2017-10-09T07:34:25.811Z,320.63
2017-10-09T07:35:25.829Z,281.25
2017-10-09T07:36:25.848Z,281.25
2017-10-09T07:37:25.871Z,286.88
2017-10-09T07:38:25.889Z,292.50
2017-10-09T07:39:25.907Z,315.00
2017-10-09T07:40:25.928Z,371.25
2017-10-09T07:41:25.948Z,309.38
2017-10-09T07:42:25.967Z,315.00
2017-10-09T07:43:25.985Z,326.25
2017-10-09T07:44:26.007Z,365.63
2017-10-09T07:45:26.025Z,410.63
2017-10-09T07:46:26.046Z,393.75
2017-10-09T07:47:26.064Z,371.25
2017-10-09T07:48:26.082Z,365.63
2017-10-09T07:49:26.102Z,365.63
2017-10-09T07:50:26.121Z,354.38
2017-10-09T07:51:26.144Z,337.50
2017-10-09T07:52:26.160Z,331.88
2017-10-09T07:53:26.181Z,337.50
2017-10-09T07:54:26.199Z,337.50
2017-10-09T07:55:26.220Z,343.13
2017-10-09T07:56:26.240Z,365.63
2017-10-09T07:57:26.259Z,433.13
2017-10-09T07:58:26.281Z,433.13
2017-10-09T07:59:26.301Z,405.00
2017-10-09T08:00:26.320Z,433.13
2017-10-09T08:01:26.339Z,523.13
2017-10-09T08:02:26.358Z,703.13
2017-10-09T08:03:26.392Z,495.00
2017-10-09T08:04:26.401Z,528.75
2017-10-09T08:05:26.418Z,534.38
2017-10-09T08:06:26.439Z,500.63
2017-10-09T08:07:26.461Z,495.00
2017-10-09T08:08:26.477Z,483.75
2017-10-09T08:09:26.498Z,478.13
2017-10-09T08:10:26.519Z,461.25
2017-10-09T08:11:26.541Z,455.63
2017-10-09T08:12:26.561Z,472.50
2017-10-09T08:13:26.580Z,416.25
2017-10-09T08:14:26.603Z,416.25
2017-10-09T08:15:26.620Z,410.63
2017-10-09T08:16:26.645Z,399.38
2017-10-09T08:17:26.661Z,393.75
2017-10-09T08:18:26.685Z,388.13
2017-10-09T08:19:26.705Z,393.75
2017-10-09T08:20:26.732Z,405.00
2017-10-09T08:21:26.771Z,416.25
2017-10-09T08:22:26.765Z,433.13
2017-10-09T08:23:26.787Z,438.75
2017-10-09T08:24:26.809Z,450.00
2017-10-09T08:25:26.828Z,455.63
2017-10-09T08:26:26.849Z,450.00
2017-10-09T08:27:26.869Z,444.38
2017-10-09T08:28:26.889Z,450.00
2017-10-09T08:29:26.912Z,461.25
2017-10-09T08:30:26.928Z,466.88
2017-10-09T08:31:26.952Z,466.88
2017-10-09T08:32:26.974Z,466.88
2017-10-09T08:33:26.995Z,455.63
2017-10-09T08:34:27.013Z,438.75
2017-10-09T08:35:27.034Z,455.63
2017-10-09T08:36:27.060Z,450.00
2017-10-09T08:37:27.074Z,450.00
2017-10-09T08:38:27.098Z,455.63
2017-10-09T08:39:27.148Z,466.88
2017-10-09T08:40:27.143Z,466.88
2017-10-09T08:41:27.170Z,438.75
2017-10-09T08:42:27.181Z,427.50
2017-10-09T08:43:27.201Z,405.00
2017-10-09T08:44:27.224Z,410.63
2017-10-09T08:45:27.244Z,416.25
2017-10-09T08:46:27.262Z,427.50
2017-10-09T08:47:27.286Z,427.50
2017-10-09T08:48:27.306Z,433.13
2017-10-09T08:49:27.328Z,427.50
2017-10-09T08:50:27.351Z,444.38
2017-10-09T08:51:27.368Z,450.00
2017-10-09T08:52:27.390Z,466.88
2017-10-09T08:53:27.410Z,455.63
2017-10-09T08:54:27.430Z,450.00
2017-10-09T08:55:27.466Z,444.38
2017-10-09T08:56:27.473Z,433.13
2017-10-09T08:57:27.494Z,450.00
2017-10-09T08:58:27.514Z,450.00
2017-10-09T08:59:27.537Z,455.63
2017-10-09T09:00:27.555Z,450.00
2017-10-09T09:01:27.577Z,438.75
2017-10-09T09:02:27.600Z,461.25
2017-10-09T09:03:27.620Z,461.25
2017-10-09T09:04:27.644Z,450.00
2017-10-09T09:05:27.663Z,444.38
2017-10-09T09:06:27.683Z,433.13
2017-10-09T09:07:27.707Z,416.25
2017-10-09T09:08:27.727Z,421.88
2017-10-09T09:09:27.747Z,393.75
2017-10-09T09:10:27.766Z,399.38
2017-10-09T09:11:27.791Z,388.13
2017-10-09T09:12:27.809Z,382.50
2017-10-09T09:13:27.831Z,376.88
2017-10-09T09:14:27.851Z,382.50
2017-10-09T09:15:27.869Z,393.75
2017-10-09T09:16:27.893Z,382.50
2017-10-09T09:17:27.914Z,371.25
2017-10-09T09:18:27.937Z,376.88
2017-10-09T09:19:27.958Z,382.50
2017-10-09T09:20:27.996Z,388.13
2017-10-09T09:21:28.000Z,393.75
2017-10-09T09:22:28.018Z,416.25
2017-10-09T09:23:28.040Z,427.50
2017-10-09T09:24:28.065Z,427.50
2017-10-09T09:25:28.084Z,438.75
2017-10-09T09:26:28.104Z,438.75
2017-10-09T09:27:28.124Z,438.75
2017-10-09T09:28:28.148Z,444.38
2017-10-09T09:29:28.167Z,450.00
2017-10-09T09:30:28.189Z,455.63
2017-10-09T09:31:28.211Z,438.75
2017-10-09T09:32:28.231Z,461.25
2017-10-09T09:33:28.250Z,455.63
2017-10-09T09:34:28.283Z,438.75
2017-10-09T09:35:28.294Z,433.13
2017-10-09T09:36:28.312Z,444.38
2017-10-09T09:37:28.334Z,450.00
2017-10-09T09:38:28.355Z,421.88
2017-10-09T09:39:28.378Z,410.63
2017-10-09T09:40:28.399Z,416.25
2017-10-09T09:41:28.419Z,416.25
2017-10-09T09:42:28.443Z,410.63
2017-10-09T09:43:28.458Z,421.88
2017-10-09T09:44:28.481Z,416.25
2017-10-09T09:45:28.503Z,399.38
2017-10-09T09:46:28.524Z,399.38
2017-10-09T09:47:28.546Z,388.13
2017-10-09T09:48:28.568Z,399.38
2017-10-09T09:49:28.589Z,405.00
2017-10-09T09:50:28.609Z,405.00
2017-10-09T09:51:28.630Z,399.38
2017-10-09T09:52:28.652Z,410.63
2017-10-09T09:53:28.669Z,393.75
2017-10-09T09:54:28.694Z,393.75
2017-10-09T09:55:28.718Z,399.38
2017-10-09T09:56:28.736Z,393.75
2017-10-09T09:57:28.757Z,388.13
2017-10-09T09:58:28.779Z,393.75
2017-10-09T09:59:28.801Z,371.25
2017-10-09T10:00:28.821Z,376.88
2017-10-09T10:01:28.845Z,354.38
2017-10-09T10:02:28.863Z,365.63
2017-10-09T10:03:28.884Z,348.75
2017-10-09T10:04:28.907Z,348.75
2017-10-09T10:05:28.939Z,354.38
2017-10-09T10:06:28.948Z,360.00
2017-10-09T10:07:28.969Z,360.00
2017-10-09T10:08:28.992Z,360.00
2017-10-09T10:09:29.009Z,365.63
2017-10-09T10:10:29.032Z,382.50
2017-10-09T10:11:29.055Z,405.00
2017-10-09T10:12:29.090Z,421.88
2017-10-09T10:13:29.093Z,433.13
2017-10-09T10:14:29.115Z,438.75
2017-10-09T10:15:29.137Z,455.63
2017-10-09T10:16:29.162Z,450.00
2017-10-09T10:17:29.177Z,444.38
2017-10-09T10:18:29.198Z,450.00
2017-10-09T10:19:29.221Z,455.63
2017-10-09T10:20:29.244Z,450.00
2017-10-09T10:21:29.263Z,472.50
2017-10-09T10:22:29.285Z,455.63
2017-10-09T10:23:29.308Z,444.38
2017-10-09T10:24:29.327Z,438.75
2017-10-09T10:25:29.348Z,421.88
2017-10-09T10:26:29.369Z,393.75
2017-10-09T10:27:29.389Z,354.38
2017-10-09T10:28:29.412Z,320.63
2017-10-09T10:29:29.433Z,298.13
2017-10-09T10:30:29.459Z,292.50
2017-10-09T10:31:29.477Z,281.25
2017-10-09T10:32:29.497Z,292.50
2017-10-09T10:33:29.518Z,320.63
2017-10-09T10:34:29.541Z,309.38
2017-10-09T10:35:29.559Z,320.63
2017-10-09T10:36:29.585Z,315.00
2017-10-09T10:37:29.602Z,337.50
2017-10-09T10:38:29.625Z,438.75
2017-10-09T10:39:29.647Z,438.75
2017-10-09T10:40:29.666Z,405.00
2017-10-09T10:41:29.686Z,399.38
2017-10-09T10:42:29.712Z,382.50
2017-10-09T10:43:29.727Z,360.00
2017-10-09T10:44:29.751Z,348.75
2017-10-09T10:45:29.768Z,354.38
2017-10-09T10:46:29.793Z,371.25
2017-10-09T10:47:29.814Z,360.00
2017-10-09T10:48:29.841Z,354.38
2017-10-09T10:49:29.854Z,388.13
2017-10-09T10:50:29.878Z,427.50
2017-10-09T10:51:29.900Z,483.75
2017-10-09T10:52:29.919Z,506.25
2017-10-09T10:53:29.940Z,483.75
2017-10-09T10:54:29.962Z,461.25
2017-10-09T10:55:29.985Z,466.88
2017-10-09T10:56:30.009Z,466.88
2017-10-09T10:57:30.024Z,444.38
2017-10-09T10:58:30.046Z,444.38
2017-10-09T10:59:30.067Z,438.75
2017-10-09T11:00:30.091Z,393.75
2017-10-09T11:01:30.112Z,393.75
2017-10-09T11:02:30.133Z,399.38
2017-10-09T11:03:30.154Z,410.63
2017-10-09T11:04:30.177Z,433.13
2017-10-09T11:05:30.195Z,455.63
2017-10-09T11:06:30.218Z,472.50
2017-10-09T11:07:30.238Z,472.50
2017-10-09T11:08:30.262Z,444.38
2017-10-09T11:09:30.282Z,421.88
2017-10-09T11:10:30.303Z,393.75
2017-10-09T11:11:30.324Z,376.88
2017-10-09T11:12:30.349Z,360.00
2017-10-09T11:13:30.370Z,348.75
2017-10-09T11:14:30.390Z,337.50
2017-10-09T11:15:30.412Z,343.13
2017-10-09T11:16:30.447Z,343.13
2017-10-09T11:17:30.459Z,354.38
2017-10-09T11:18:30.477Z,354.38
2017-10-09T11:19:30.499Z,360.00
2017-10-09T11:20:30.517Z,354.38
2017-10-09T11:21:30.537Z,348.75
2017-10-09T11:22:30.561Z,343.13
2017-10-09T11:23:30.582Z,343.13
2017-10-09T11:24:30.607Z,354.38
2017-10-09T11:25:30.625Z,360.00
2017-10-09T11:26:30.646Z,376.88
2017-10-09T11:27:30.669Z,388.13
2017-10-09T11:28:30.690Z,410.63
2017-10-09T11:29:30.711Z,421.88
2017-10-09T11:30:30.733Z,438.75
2017-10-09T11:31:30.754Z,455.63
2017-10-09T11:32:30.773Z,455.63
2017-10-09T11:33:30.794Z,461.25
2017-10-09T11:34:30.815Z,438.75
2017-10-09T11:35:30.838Z,427.50
2017-10-09T11:36:30.860Z,416.25
2017-10-09T11:37:30.880Z,410.63
2017-10-09T11:38:30.901Z,405.00
2017-10-09T11:39:30.922Z,388.13
2017-10-09T11:40:30.944Z,388.13
2017-10-09T11:41:30.965Z,399.38
2017-10-09T11:42:30.988Z,416.25
2017-10-09T11:43:31.009Z,427.50
2017-10-09T11:44:31.031Z,472.50
2017-10-09T11:45:31.053Z,466.88
2017-10-09T11:46:31.073Z,455.63
2017-10-09T11:47:31.093Z,438.75
2017-10-09T11:48:31.113Z,410.63
2017-10-09T11:49:31.139Z,405.00
2017-10-09T11:50:31.157Z,405.00
2017-10-09T11:51:31.177Z,410.63
2017-10-09T11:52:31.200Z,405.00
2017-10-09T11:53:31.220Z,399.38
2017-10-09T11:54:31.243Z,388.13
2017-10-09T11:55:31.264Z,382.50
2017-10-09T11:56:31.287Z,382.50
2017-10-09T11:57:31.308Z,393.75
2017-10-09T11:58:31.327Z,405.00
2017-10-09T11:59:31.350Z,410.63
2017-10-09T12:00:31.380Z,421.88
2017-10-09T12:01:31.392Z,427.50
2017-10-09T12:02:31.414Z,421.88
2017-10-09T12:03:31.437Z,427.50
2017-10-09T12:04:31.457Z,433.13
2017-10-09T12:05:31.478Z,433.13
2017-10-09T12:06:31.501Z,438.75
2017-10-09T12:07:31.521Z,438.75
2017-10-09T12:08:31.543Z,444.38
2017-10-09T12:09:31.568Z,433.13
2017-10-09T12:10:31.585Z,427.50
2017-10-09T12:11:31.611Z,427.50
2017-10-09T12:12:31.628Z,416.25
2017-10-09T12:13:31.653Z,416.25
2017-10-09T12:14:31.675Z,416.25
2017-10-09T12:15:31.693Z,416.25
2017-10-09T12:16:31.717Z,410.63
2017-10-09T12:17:31.739Z,405.00
2017-10-09T12:18:31.763Z,399.38
2017-10-09T12:19:31.780Z,399.38
2017-10-09T12:20:31.805Z,410.63
2017-10-09T12:21:31.822Z,405.00
2017-10-09T12:22:31.845Z,399.38
2017-10-09T12:23:31.870Z,393.75
2017-10-09T12:24:31.888Z,393.75
2017-10-09T12:25:31.913Z,393.75
2017-10-09T12:26:31.933Z,399.38
2017-10-09T12:27:31.953Z,393.75
2017-10-09T12:28:31.973Z,388.13
2017-10-09T12:29:31.995Z,382.50
2017-10-09T12:30:32.019Z,388.13
2017-10-09T12:31:32.040Z,405.00
2017-10-09T12:32:32.062Z,399.38
2017-10-09T12:33:32.081Z,393.75
2017-10-09T12:34:32.102Z,410.63
2017-10-09T12:35:32.125Z,421.88
2017-10-09T12:36:32.149Z,410.63
2017-10-09T12:37:32.167Z,416.25
2017-10-09T12:38:32.190Z,433.13
2017-10-09T12:39:32.211Z,433.13
2017-10-09T12:40:32.244Z,421.88
2017-10-09T12:41:32.254Z,410.63
2017-10-09T12:42:32.275Z,410.63
2017-10-09T12:43:32.302Z,416.25
2017-10-09T12:44:32.320Z,421.88
2017-10-09T12:45:32.340Z,427.50
2017-10-09T12:46:32.365Z,421.88
2017-10-09T12:47:32.387Z,410.63
2017-10-09T12:48:32.409Z,410.63
2017-10-09T12:49:32.433Z,405.00
2017-10-09T12:50:32.455Z,433.13
2017-10-09T12:51:32.472Z,399.38
2017-10-09T12:52:32.496Z,388.13